createdAt,value
2022-12-08T00:01:56.743Z,7.88
2022-12-08T00:21:56.537Z,7.88
2022-12-08T00:41:56.539Z,7.88
2022-12-08T01:21:56.481Z,7.88
2022-12-08T01:41:56.499Z,7.88
2022-12-08T02:01:56.517Z,7.88
2022-12-08T02:41:56.441Z,7.87
2022-12-08T03:21:56.447Z,7.87
2022-12-08T03:41:56.459Z,7.87
2022-12-08T04:21:56.422Z,7.87
2022-12-08T04:41:56.410Z,7.87
2022-12-08T06:01:56.438Z,7.86
2022-12-08T06:21:56.341Z,7.86
2022-12-08T07:01:56.076Z,7.86
2022-12-08T07:21:56.052Z,7.86
2022-12-08T08:02:13.405Z,7.86
2022-12-08T08:41:56.283Z,7.86
2022-12-08T09:01:56.334Z,7.86
2022-12-08T09:21:56.238Z,7.86
2022-12-08T10:01:56.270Z,7.85
2022-12-08T11:21:56.164Z,7.84
2022-12-08T11:41:55.907Z,7.84
2022-12-08T12:01:56.225Z,7.84
2022-12-08T13:01:56.138Z,7.83
2022-12-08T13:21:56.109Z,7.82
2022-12-08T14:01:56.158Z,7.82
2022-12-08T14:21:56.305Z,7.82
2022-12-08T14:41:56.103Z,7.82
2022-12-08T15:01:56.109Z,7.81
2022-12-08T15:21:56.045Z,7.82
2022-12-08T15:41:56.043Z,7.82
2022-12-08T16:01:56.106Z,7.82
2022-12-08T16:22:44.761Z,7.82
2022-12-08T16:41:56.014Z,7.82
2022-12-08T17:01:56.012Z,7.83
2022-12-08T17:21:55.988Z,7.83
2022-12-08T17:41:55.981Z,7.83
2022-12-08T18:01:56.033Z,7.83
2022-12-08T18:21:55.973Z,7.83
2022-12-08T18:41:55.968Z,7.83
2022-12-08T19:01:56.025Z,7.83
2022-12-08T19:21:55.941Z,7.83
2022-12-08T19:41:55.942Z,7.84
2022-12-08T20:01:56.102Z,7.84
2022-12-08T20:21:55.915Z,7.84
2022-12-08T20:41:55.926Z,7.84
2022-12-08T21:01:56.015Z,7.84
2022-12-08T21:21:56.105Z,7.84
2022-12-08T21:41:55.980Z,7.84
2022-12-08T22:01:56.308Z,7.84
2022-12-08T22:21:55.925Z,7.84
2022-12-08T22:41:55.900Z,7.84
2022-12-08T23:01:55.913Z,7.84
2022-12-08T23:21:55.896Z,7.84
2022-12-08T23:41:55.972Z,7.84
